sensor_id;sensor_type;location;lat;lon;timestamp;temperature;humidity
61386;DHT22;47256;18.904;-99.054;2023-09-07T00:01:37;29.00;99.90
61386;DHT22;47256;18.904;-99.054;2023-09-07T00:04:05;29.00;99.90
61386;DHT22;47256;18.904;-99.054;2023-09-07T00:06:32;29.00;99.90
61386;DHT22;47256;18.904;-99.054;2023-09-07T00:09:02;29.00;99.90
61386;DHT22;47256;18.904;-99.054;2023-09-07T00:11:29;29.00;99.90
61386;DHT22;47256;18.904;-99.054;2023-09-07T00:13:57;29.00;99.90
61386;DHT22;47256;18.904;-99.054;2023-09-07T00:16:25;28.90;99.90
61386;DHT22;47256;18.904;-99.054;2023-09-07T00:18:52;28.90;99.90
61386;DHT22;47256;18.904;-99.054;2023-09-07T00:21:20;28.80;99.90
61386;DHT22;47256;18.904;-99.054;2023-09-07T00:23:47;28.70;99.90
61386;DHT22;47256;18.904;-99.054;2023-09-07T00:26:15;28.70;99.90
61386;DHT22;47256;18.904;-99.054;2023-09-07T00:28:42;28.60;99.90
61386;DHT22;47256;18.904;-99.054;2023-09-07T00:31:09;28.60;99.90
61386;DHT22;47256;18.904;-99.054;2023-09-07T00:33:37;28.60;99.90
61386;DHT22;47256;18.904;-99.054;2023-09-07T00:36:04;28.70;99.90
61386;DHT22;47256;18.904;-99.054;2023-09-07T00:38:31;28.70;99.90
61386;DHT22;47256;18.904;-99.054;2023-09-07T00:40:58;28.70;99.90
61386;DHT22;47256;18.904;-99.054;2023-09-07T00:43:26;28.60;99.90
61386;DHT22;47256;18.904;-99.054;2023-09-07T00:45:53;28.50;99.90
61386;DHT22;47256;18.904;-99.054;2023-09-07T00:48:20;28.50;99.90
61386;DHT22;47256;18.904;-99.054;2023-09-07T00:50:48;28.50;99.90
61386;DHT22;47256;18.904;-99.054;2023-09-07T00:53:16;28.50;99.90
61386;DHT22;47256;18.904;-99.054;2023-09-07T00:55:45;28.40;99.90
61386;DHT22;47256;18.904;-99.054;2023-09-07T00:58:14;28.40;99.90
61386;DHT22;47256;18.904;-99.054;2023-09-07T01:00:41;28.40;99.90
61386;DHT22;47256;18.904;-99.054;2023-09-07T01:03:09;28.40;99.90
61386;DHT22;47256;18.904;-99.054;2023-09-07T01:06:07;28.30;99.90
61386;DHT22;47256;18.904;-99.054;2023-09-07T01:08:48;28.20;99.90
61386;DHT22;47256;18.904;-99.054;2023-09-07T01:11:16;28.20;99.90
61386;DHT22;47256;18.904;-99.054;2023-09-07T01:13:44;28.10;99.90
61386;DHT22;47256;18.904;-99.054;2023-09-07T01:16:12;28.10;99.90
61386;DHT22;47256;18.904;-99.054;2023-09-07T01:18:40;28.10;99.90
61386;DHT22;47256;18.904;-99.054;2023-09-07T01:21:09;28.10;99.90
61386;DHT22;47256;18.904;-99.054;2023-09-07T01:23:47;28.20;99.90
61386;DHT22;47256;18.904;-99.054;2023-09-07T01:26:14;28.20;99.90
61386;DHT22;47256;18.904;-99.054;2023-09-07T01:28:42;28.20;99.90
61386;DHT22;47256;18.904;-99.054;2023-09-07T01:31:09;28.10;99.90
61386;DHT22;47256;18.904;-99.054;2023-09-07T01:33:36;27.90;99.90
61386;DHT22;47256;18.904;-99.054;2023-09-07T01:36:04;27.80;99.90
61386;DHT22;47256;18.904;-99.054;2023-09-07T01:38:31;27.60;99.90
61386;DHT22;47256;18.904;-99.054;2023-09-07T01:40:58;27.30;99.90
61386;DHT22;47256;18.904;-99.054;2023-09-07T01:43:26;27.10;99.80
61386;DHT22;47256;18.904;-99.054;2023-09-07T01:45:53;26.80;99.90
61386;DHT22;47256;18.904;-99.054;2023-09-07T01:48:20;26.60;99.90
61386;DHT22;47256;18.904;-99.054;2023-09-07T01:50:47;26.20;99.90
61386;DHT22;47256;18.904;-99.054;2023-09-07T01:53:14;25.60;99.90
61386;DHT22;47256;18.904;-99.054;2023-09-07T01:55:41;25.20;99.90
61386;DHT22;47256;18.904;-99.054;2023-09-07T01:58:09;25.00;99.90
61386;DHT22;47256;18.904;-99.054;2023-09-07T02:00:40;25.00;99.90
61386;DHT22;47256;18.904;-99.054;2023-09-07T02:03:07;24.90;99.90
61386;DHT22;47256;18.904;-99.054;2023-09-07T02:05:35;24.90;99.90
61386;DHT22;47256;18.904;-99.054;2023-09-07T02:08:02;25.00;99.90
61386;DHT22;47256;18.904;-99.054;2023-09-07T02:10:31;24.70;99.90
61386;DHT22;47256;18.904;-99.054;2023-09-07T02:12:58;24.50;99.90
61386;DHT22;47256;18.904;-99.054;2023-09-07T02:15:27;24.30;99.90
61386;DHT22;47256;18.904;-99.054;2023-09-07T02:17:54;24.20;99.90
61386;DHT22;47256;18.904;-99.054;2023-09-07T02:20:21;24.20;99.90
61386;DHT22;47256;18.904;-99.054;2023-09-07T02:22:49;23.90;99.90
61386;DHT22;47256;18.904;-99.054;2023-09-07T02:25:17;23.70;99.90
61386;DHT22;47256;18.904;-99.054;2023-09-07T02:27:44;23.60;99.90
61386;DHT22;47256;18.904;-99.054;2023-09-07T02:30:12;23.60;99.90
61386;DHT22;47256;18.904;-99.054;2023-09-07T02:32:40;23.50;99.90
61386;DHT22;47256;18.904;-99.054;2023-09-07T02:35:08;23.40;99.90
61386;DHT22;47256;18.904;-99.054;2023-09-07T02:37:37;23.20;99.90
61386;DHT22;47256;18.904;-99.054;2023-09-07T02:40:07;23.10;99.90
61386;DHT22;47256;18.904;-99.054;2023-09-07T02:42:40;23.00;99.90
61386;DHT22;47256;18.904;-99.054;2023-09-07T02:45:11;23.10;99.90
61386;DHT22;47256;18.904;-99.054;2023-09-07T02:47:39;23.40;99.90
61386;DHT22;47256;18.904;-99.054;2023-09-07T02:50:07;23.50;99.90
61386;DHT22;47256;18.904;-99.054;2023-09-07T02:52:34;23.60;99.90
61386;DHT22;47256;18.904;-99.054;2023-09-07T02:55:01;23.70;99.90
61386;DHT22;47256;18.904;-99.054;2023-09-07T02:57:29;23.80;99.90
61386;DHT22;47256;18.904;-99.054;2023-09-07T02:59:57;23.70;99.90
61386;DHT22;47256;18.904;-99.054;2023-09-07T03:02:25;23.60;99.90
61386;DHT22;47256;18.904;-99.054;2023-09-07T03:04:54;23.60;99.90
61386;DHT22;47256;18.904;-99.054;2023-09-07T03:07:25;23.80;99.90
61386;DHT22;47256;18.904;-99.054;2023-09-07T03:09:53;23.90;99.90
61386;DHT22;47256;18.904;-99.054;2023-09-07T03:12:20;24.00;99.90
61386;DHT22;47256;18.904;-99.054;2023-09-07T03:14:48;24.00;99.90
61386;DHT22;47256;18.904;-99.054;2023-09-07T03:17:17;24.00;99.90
61386;DHT22;47256;18.904;-99.054;2023-09-07T03:19:48;23.90;99.90
61386;DHT22;47256;18.904;-99.054;2023-09-07T03:22:15;24.00;99.90
61386;DHT22;47256;18.904;-99.054;2023-09-07T03:24:42;24.10;99.90
61386;DHT22;47256;18.904;-99.054;2023-09-07T03:27:09;24.20;99.90
61386;DHT22;47256;18.904;-99.054;2023-09-07T03:29:37;24.10;99.90
61386;DHT22;47256;18.904;-99.054;2023-09-07T03:32:05;24.10;99.90
61386;DHT22;47256;18.904;-99.054;2023-09-07T03:34:34;24.20;99.90
61386;DHT22;47256;18.904;-99.054;2023-09-07T03:37:01;24.20;99.90
61386;DHT22;47256;18.904;-99.054;2023-09-07T03:39:28;24.10;99.90
61386;DHT22;47256;18.904;-99.054;2023-09-07T03:41:55;24.10;99.90
61386;DHT22;47256;18.904;-99.054;2023-09-07T03:44:23;24.10;99.90
61386;DHT22;47256;18.904;-99.054;2023-09-07T03:46:51;24.20;99.90
61386;DHT22;47256;18.904;-99.054;2023-09-07T03:49:18;24.10;99.90
61386;DHT22;47256;18.904;-99.054;2023-09-07T03:51:46;24.10;99.90
61386;DHT22;47256;18.904;-99.054;2023-09-07T03:54:14;23.90;99.90
61386;DHT22;47256;18.904;-99.054;2023-09-07T03:56:41;24.00;99.90
61386;DHT22;47256;18.904;-99.054;2023-09-07T03:59:10;24.00;99.90
61386;DHT22;47256;18.904;-99.054;2023-09-07T04:01:37;23.90;99.90
61386;DHT22;47256;18.904;-99.054;2023-09-07T04:04:06;23.90;99.90
61386;DHT22;47256;18.904;-99.054;2023-09-07T04:06:33;23.90;99.90
61386;DHT22;47256;18.904;-99.054;2023-09-07T04:09:00;24.00;99.90
61386;DHT22;47256;18.904;-99.054;2023-09-07T04:11:27;24.00;99.90
61386;DHT22;47256;18.904;-99.054;2023-09-07T04:13:55;24.00;99.90
61386;DHT22;47256;18.904;-99.054;2023-09-07T04:16:22;24.00;99.90
61386;DHT22;47256;18.904;-99.054;2023-09-07T04:18:49;24.00;99.90
61386;DHT22;47256;18.904;-99.054;2023-09-07T04:21:16;23.90;99.90
61386;DHT22;47256;18.904;-99.054;2023-09-07T04:23:44;23.90;99.90
61386;DHT22;47256;18.904;-99.054;2023-09-07T04:26:12;23.90;99.90
61386;DHT22;47256;18.904;-99.054;2023-09-07T04:28:40;23.90;99.90
61386;DHT22;47256;18.904;-99.054;2023-09-07T04:31:07;23.90;99.90
61386;DHT22;47256;18.904;-99.054;2023-09-07T04:33:35;23.90;99.90
61386;DHT22;47256;18.904;-99.054;2023-09-07T04:36:15;23.90;99.90
61386;DHT22;47256;18.904;-99.054;2023-09-07T04:38:45;23.90;99.90
61386;DHT22;47256;18.904;-99.054;2023-09-07T04:41:13;23.80;99.90
61386;DHT22;47256;18.904;-99.054;2023-09-07T04:43:42;23.80;99.90
61386;DHT22;47256;18.904;-99.054;2023-09-07T04:46:13;23.80;99.90
61386;DHT22;47256;18.904;-99.054;2023-09-07T04:48:41;23.80;99.90
61386;DHT22;47256;18.904;-99.054;2023-09-07T04:51:09;23.90;99.90
61386;DHT22;47256;18.904;-99.054;2023-09-07T04:53:39;23.90;99.90
61386;DHT22;47256;18.904;-99.054;2023-09-07T04:56:08;23.90;99.90
61386;DHT22;47256;18.904;-99.054;2023-09-07T04:58:37;23.90;99.90
61386;DHT22;47256;18.904;-99.054;2023-09-07T05:01:10;23.90;99.90
61386;DHT22;47256;18.904;-99.054;2023-09-07T05:03:42;23.80;99.90
61386;DHT22;47256;18.904;-99.054;2023-09-07T05:06:11;23.80;99.90
61386;DHT22;47256;18.904;-99.054;2023-09-07T05:08:39;23.80;99.90
61386;DHT22;47256;18.904;-99.054;2023-09-07T05:11:06;23.80;99.90
61386;DHT22;47256;18.904;-99.054;2023-09-07T05:13:35;23.70;99.90
61386;DHT22;47256;18.904;-99.054;2023-09-07T05:16:02;23.70;99.90
61386;DHT22;47256;18.904;-99.054;2023-09-07T05:18:32;23.80;99.90
61386;DHT22;47256;18.904;-99.054;2023-09-07T05:20:59;23.80;99.90
61386;DHT22;47256;18.904;-99.054;2023-09-07T05:23:26;23.80;99.90
61386;DHT22;47256;18.904;-99.054;2023-09-07T05:25:54;23.80;99.90
61386;DHT22;47256;18.904;-99.054;2023-09-07T05:28:24;23.80;99.90
61386;DHT22;47256;18.904;-99.054;2023-09-07T05:30:53;23.80;99.90
61386;DHT22;47256;18.904;-99.054;2023-09-07T05:33:22;23.70;99.90
61386;DHT22;47256;18.904;-99.054;2023-09-07T05:35:50;23.80;99.90
61386;DHT22;47256;18.904;-99.054;2023-09-07T05:38:18;23.80;99.90
61386;DHT22;47256;18.904;-99.054;2023-09-07T05:40:45;23.80;99.90
61386;DHT22;47256;18.904;-99.054;2023-09-07T05:43:17;23.80;99.90
61386;DHT22;47256;18.904;-99.054;2023-09-07T05:45:44;23.80;99.90
61386;DHT22;47256;18.904;-99.054;2023-09-07T05:48:12;23.80;99.90
61386;DHT22;47256;18.904;-99.054;2023-09-07T05:50:40;23.80;99.90
61386;DHT22;47256;18.904;-99.054;2023-09-07T05:53:08;23.80;99.90
61386;DHT22;47256;18.904;-99.054;2023-09-07T05:55:35;23.80;99.90
61386;DHT22;47256;18.904;-99.054;2023-09-07T05:58:07;23.70;99.90
61386;DHT22;47256;18.904;-99.054;2023-09-07T06:00:38;23.70;99.90
61386;DHT22;47256;18.904;-99.054;2023-09-07T06:03:10;23.70;99.90
61386;DHT22;47256;18.904;-99.054;2023-09-07T06:05:38;23.70;99.90
61386;DHT22;47256;18.904;-99.054;2023-09-07T06:08:09;23.70;99.90
61386;DHT22;47256;18.904;-99.054;2023-09-07T06:10:38;23.80;99.90
61386;DHT22;47256;18.904;-99.054;2023-09-07T06:13:06;23.80;99.90
61386;DHT22;47256;18.904;-99.054;2023-09-07T06:15:34;23.80;99.90
61386;DHT22;47256;18.904;-99.054;2023-09-07T06:18:01;23.80;99.90
61386;DHT22;47256;18.904;-99.054;2023-09-07T06:20:29;23.80;99.90
61386;DHT22;47256;18.904;-99.054;2023-09-07T06:22:59;23.80;99.90
61386;DHT22;47256;18.904;-99.054;2023-09-07T06:25:26;23.70;99.90
61386;DHT22;47256;18.904;-99.054;2023-09-07T06:27:54;23.60;99.90
61386;DHT22;47256;18.904;-99.054;2023-09-07T06:30:22;23.70;99.90
61386;DHT22;47256;18.904;-99.054;2023-09-07T06:32:50;23.60;99.90
61386;DHT22;47256;18.904;-99.054;2023-09-07T06:35:19;23.60;99.90
61386;DHT22;47256;18.904;-99.054;2023-09-07T06:37:46;23.60;99.90
61386;DHT22;47256;18.904;-99.054;2023-09-07T06:40:17;23.60;99.90
61386;DHT22;47256;18.904;-99.054;2023-09-07T06:42:45;23.60;99.90
61386;DHT22;47256;18.904;-99.054;2023-09-07T06:45:16;23.50;99.90
61386;DHT22;47256;18.904;-99.054;2023-09-07T06:47:44;23.60;99.90
61386;DHT22;47256;18.904;-99.054;2023-09-07T06:50:12;23.50;99.90
61386;DHT22;47256;18.904;-99.054;2023-09-07T06:52:39;23.50;99.90
61386;DHT22;47256;18.904;-99.054;2023-09-07T06:55:07;23.50;99.90
61386;DHT22;47256;18.904;-99.054;2023-09-07T06:57:35;23.50;99.90
61386;DHT22;47256;18.904;-99.054;2023-09-07T07:00:04;23.50;99.90
61386;DHT22;47256;18.904;-99.054;2023-09-07T07:02:36;23.60;99.90
61386;DHT22;47256;18.904;-99.054;2023-09-07T07:05:03;23.60;99.90
61386;DHT22;47256;18.904;-99.054;2023-09-07T07:07:32;23.60;99.90
61386;DHT22;47256;18.904;-99.054;2023-09-07T07:09:59;23.60;99.90
61386;DHT22;47256;18.904;-99.054;2023-09-07T07:12:27;23.60;99.90
61386;DHT22;47256;18.904;-99.054;2023-09-07T07:14:54;23.60;99.90
61386;DHT22;47256;18.904;-99.054;2023-09-07T07:17:22;23.60;99.90
61386;DHT22;47256;18.904;-99.054;2023-09-07T07:19:49;23.60;99.90
61386;DHT22;47256;18.904;-99.054;2023-09-07T07:22:16;23.50;99.90
61386;DHT22;47256;18.904;-99.054;2023-09-07T07:24:44;23.50;99.90
61386;DHT22;47256;18.904;-99.054;2023-09-07T07:27:11;23.60;99.90
61386;DHT22;47256;18.904;-99.054;2023-09-07T07:29:39;23.50;99.90
61386;DHT22;47256;18.904;-99.054;2023-09-07T07:32:06;23.50;99.90
61386;DHT22;47256;18.904;-99.054;2023-09-07T07:34:34;23.60;99.90
61386;DHT22;47256;18.904;-99.054;2023-09-07T07:37:02;23.60;99.90
61386;DHT22;47256;18.904;-99.054;2023-09-07T07:39:29;23.60;99.90
61386;DHT22;47256;18.904;-99.054;2023-09-07T07:41:57;23.60;99.90
61386;DHT22;47256;18.904;-99.054;2023-09-07T07:44:24;23.50;99.90
61386;DHT22;47256;18.904;-99.054;2023-09-07T07:46:51;23.50;99.90
61386;DHT22;47256;18.904;-99.054;2023-09-07T07:49:19;23.40;99.90
61386;DHT22;47256;18.904;-99.054;2023-09-07T07:51:46;23.30;99.90
61386;DHT22;47256;18.904;-99.054;2023-09-07T07:54:13;23.40;99.90
61386;DHT22;47256;18.904;-99.054;2023-09-07T07:56:40;23.40;99.90
61386;DHT22;47256;18.904;-99.054;2023-09-07T07:59:09;23.40;99.90
61386;DHT22;47256;18.904;-99.054;2023-09-07T08:01:36;23.40;99.90
61386;DHT22;47256;18.904;-99.054;2023-09-07T08:04:05;23.50;99.90
61386;DHT22;47256;18.904;-99.054;2023-09-07T08:06:35;23.50;99.90
61386;DHT22;47256;18.904;-99.054;2023-09-07T08:09:03;23.40;99.90
61386;DHT22;47256;18.904;-99.054;2023-09-07T08:11:56;23.50;99.90
61386;DHT22;47256;18.904;-99.054;2023-09-07T08:14:25;23.50;99.90
61386;DHT22;47256;18.904;-99.054;2023-09-07T08:16:54;23.40;99.90
61386;DHT22;47256;18.904;-99.054;2023-09-07T08:19:21;23.40;99.90
61386;DHT22;47256;18.904;-99.054;2023-09-07T08:21:48;23.40;99.90
61386;DHT22;47256;18.904;-99.054;2023-09-07T08:24:16;23.40;99.90
61386;DHT22;47256;18.904;-99.054;2023-09-07T08:26:46;23.40;99.90
61386;DHT22;47256;18.904;-99.054;2023-09-07T08:29:18;23.40;99.90
61386;DHT22;47256;18.904;-99.054;2023-09-07T08:31:47;23.40;99.90
61386;DHT22;47256;18.904;-99.054;2023-09-07T08:34:17;23.40;99.90
61386;DHT22;47256;18.904;-99.054;2023-09-07T08:36:47;23.30;99.90
61386;DHT22;47256;18.904;-99.054;2023-09-07T08:39:16;23.30;99.90
61386;DHT22;47256;18.904;-99.054;2023-09-07T08:41:44;23.20;99.90
61386;DHT22;47256;18.904;-99.054;2023-09-07T08:44:12;23.20;99.90
61386;DHT22;47256;18.904;-99.054;2023-09-07T08:46:43;23.30;99.90
61386;DHT22;47256;18.904;-99.054;2023-09-07T08:49:13;23.30;99.90
61386;DHT22;47256;18.904;-99.054;2023-09-07T08:51:40;23.30;99.90
61386;DHT22;47256;18.904;-99.054;2023-09-07T08:54:08;23.20;99.90
61386;DHT22;47256;18.904;-99.054;2023-09-07T08:56:36;23.20;99.90
61386;DHT22;47256;18.904;-99.054;2023-09-07T08:59:04;23.30;99.90
61386;DHT22;47256;18.904;-99.054;2023-09-07T09:01:32;23.30;99.90
61386;DHT22;47256;18.904;-99.054;2023-09-07T09:04:00;23.30;99.90
61386;DHT22;47256;18.904;-99.054;2023-09-07T09:06:26;23.30;99.90
61386;DHT22;47256;18.904;-99.054;2023-09-07T09:08:57;23.30;99.90
61386;DHT22;47256;18.904;-99.054;2023-09-07T09:11:25;23.20;99.90
61386;DHT22;47256;18.904;-99.054;2023-09-07T09:13:54;23.20;99.90
61386;DHT22;47256;18.904;-99.054;2023-09-07T09:16:21;23.20;99.90
61386;DHT22;47256;18.904;-99.054;2023-09-07T09:21:20;23.20;99.90
61386;DHT22;47256;18.904;-99.054;2023-09-07T09:23:52;23.20;99.90
61386;DHT22;47256;18.904;-99.054;2023-09-07T09:26:22;23.20;99.90
61386;DHT22;47256;18.904;-99.054;2023-09-07T09:28:50;23.20;99.90
61386;DHT22;47256;18.904;-99.054;2023-09-07T09:31:21;23.20;99.90
61386;DHT22;47256;18.904;-99.054;2023-09-07T09:33:49;23.10;99.90
61386;DHT22;47256;18.904;-99.054;2023-09-07T09:36:20;23.10;99.90
61386;DHT22;47256;18.904;-99.054;2023-09-07T09:38:49;23.10;99.90
61386;DHT22;47256;18.904;-99.054;2023-09-07T09:41:23;23.10;99.90
61386;DHT22;47256;18.904;-99.054;2023-09-07T09:43:52;23.10;99.90
61386;DHT22;47256;18.904;-99.054;2023-09-07T09:46:22;23.20;99.90
61386;DHT22;47256;18.904;-99.054;2023-09-07T09:48:49;23.10;99.90
61386;DHT22;47256;18.904;-99.054;2023-09-07T09:51:18;23.10;99.90
61386;DHT22;47256;18.904;-99.054;2023-09-07T09:53:45;23.10;99.90
61386;DHT22;47256;18.904;-99.054;2023-09-07T09:56:13;23.10;99.90
61386;DHT22;47256;18.904;-99.054;2023-09-07T09:58:40;23.10;99.90
61386;DHT22;47256;18.904;-99.054;2023-09-07T10:01:09;23.10;99.90
61386;DHT22;47256;18.904;-99.054;2023-09-07T10:03:46;23.10;99.90
61386;DHT22;47256;18.904;-99.054;2023-09-07T10:06:24;23.10;99.90
61386;DHT22;47256;18.904;-99.054;2023-09-07T10:09:11;23.00;99.90
61386;DHT22;47256;18.904;-99.054;2023-09-07T10:11:50;23.10;99.90
61386;DHT22;47256;18.904;-99.054;2023-09-07T10:14:17;23.10;99.90
61386;DHT22;47256;18.904;-99.054;2023-09-07T10:16:47;23.10;99.90
61386;DHT22;47256;18.904;-99.054;2023-09-07T10:19:23;23.10;99.90
61386;DHT22;47256;18.904;-99.054;2023-09-07T10:21:53;23.10;99.90
61386;DHT22;47256;18.904;-99.054;2023-09-07T10:24:25;23.10;99.90
61386;DHT22;47256;18.904;-99.054;2023-09-07T10:26:58;23.10;99.90
61386;DHT22;47256;18.904;-99.054;2023-09-07T10:29:26;23.10;99.90
61386;DHT22;47256;18.904;-99.054;2023-09-07T10:31:54;23.00;99.90
61386;DHT22;47256;18.904;-99.054;2023-09-07T10:34:22;23.00;99.90
61386;DHT22;47256;18.904;-99.054;2023-09-07T10:37:00;23.00;99.90
61386;DHT22;47256;18.904;-99.054;2023-09-07T10:39:31;23.00;99.90
61386;DHT22;47256;18.904;-99.054;2023-09-07T10:41:59;23.00;99.90
61386;DHT22;47256;18.904;-99.054;2023-09-07T10:44:27;22.90;99.90
61386;DHT22;47256;18.904;-99.054;2023-09-07T10:46:56;22.90;99.90
61386;DHT22;47256;18.904;-99.054;2023-09-07T10:49:24;22.90;99.90
61386;DHT22;47256;18.904;-99.054;2023-09-07T10:51:51;22.90;99.90
61386;DHT22;47256;18.904;-99.054;2023-09-07T10:54:23;22.90;99.90
61386;DHT22;47256;18.904;-99.054;2023-09-07T10:56:51;22.90;99.90
61386;DHT22;47256;18.904;-99.054;2023-09-07T10:59:19;22.90;99.90
61386;DHT22;47256;18.904;-99.054;2023-09-07T11:01:46;22.80;99.90
61386;DHT22;47256;18.904;-99.054;2023-09-07T11:04:15;22.70;99.90
61386;DHT22;47256;18.904;-99.054;2023-09-07T11:06:44;22.70;99.90
61386;DHT22;47256;18.904;-99.054;2023-09-07T11:09:11;22.70;99.90
61386;DHT22;47256;18.904;-99.054;2023-09-07T11:11:38;22.70;99.90
61386;DHT22;47256;18.904;-99.054;2023-09-07T11:14:06;22.50;99.90
61386;DHT22;47256;18.904;-99.054;2023-09-07T11:16:34;22.50;99.90
61386;DHT22;47256;18.904;-99.054;2023-09-07T11:19:06;22.30;99.90
61386;DHT22;47256;18.904;-99.054;2023-09-07T11:21:34;22.20;99.90
61386;DHT22;47256;18.904;-99.054;2023-09-07T11:24:02;22.20;99.90
61386;DHT22;47256;18.904;-99.054;2023-09-07T11:26:46;22.20;99.90
61386;DHT22;47256;18.904;-99.054;2023-09-07T11:29:16;22.10;99.90
61386;DHT22;47256;18.904;-99.054;2023-09-07T11:31:44;22.10;99.90
61386;DHT22;47256;18.904;-99.054;2023-09-07T11:34:14;22.00;99.90
61386;DHT22;47256;18.904;-99.054;2023-09-07T11:36:42;21.90;99.90
61386;DHT22;47256;18.904;-99.054;2023-09-07T11:39:09;21.90;99.90
61386;DHT22;47256;18.904;-99.054;2023-09-07T11:41:43;21.90;99.90
61386;DHT22;47256;18.904;-99.054;2023-09-07T11:44:11;21.90;99.90
61386;DHT22;47256;18.904;-99.054;2023-09-07T11:46:39;21.90;99.90
61386;DHT22;47256;18.904;-99.054;2023-09-07T11:49:06;21.90;99.90
61386;DHT22;47256;18.904;-99.054;2023-09-07T11:51:35;21.90;99.90
61386;DHT22;47256;18.904;-99.054;2023-09-07T11:54:03;21.80;99.90
61386;DHT22;47256;18.904;-99.054;2023-09-07T11:56:31;21.80;99.90
61386;DHT22;47256;18.904;-99.054;2023-09-07T11:58:58;21.80;99.90
61386;DHT22;47256;18.904;-99.054;2023-09-07T12:01:26;21.80;99.90
61386;DHT22;47256;18.904;-99.054;2023-09-07T12:03:54;21.80;99.90
61386;DHT22;47256;18.904;-99.054;2023-09-07T12:06:21;21.90;99.90
61386;DHT22;47256;18.904;-99.054;2023-09-07T12:09:04;22.00;99.90
61386;DHT22;47256;18.904;-99.054;2023-09-07T12:11:32;22.10;99.90
61386;DHT22;47256;18.904;-99.054;2023-09-07T12:13:59;22.20;99.90
61386;DHT22;47256;18.904;-99.054;2023-09-07T12:16:28;22.30;99.90
61386;DHT22;47256;18.904;-99.054;2023-09-07T12:18:55;22.30;99.90
61386;DHT22;47256;18.904;-99.054;2023-09-07T12:21:22;22.40;99.90
61386;DHT22;47256;18.904;-99.054;2023-09-07T12:23:50;22.40;99.90
61386;DHT22;47256;18.904;-99.054;2023-09-07T12:26:17;22.40;99.90
61386;DHT22;47256;18.904;-99.054;2023-09-07T12:28:47;22.40;99.90
61386;DHT22;47256;18.904;-99.054;2023-09-07T12:31:14;22.40;99.90
61386;DHT22;47256;18.904;-99.054;2023-09-07T12:33:42;22.30;99.90
61386;DHT22;47256;18.904;-99.054;2023-09-07T12:36:10;22.30;99.90
61386;DHT22;47256;18.904;-99.054;2023-09-07T12:38:38;22.40;99.90
61386;DHT22;47256;18.904;-99.054;2023-09-07T12:41:06;22.30;99.90
61386;DHT22;47256;18.904;-99.054;2023-09-07T12:43:33;22.30;99.90
61386;DHT22;47256;18.904;-99.054;2023-09-07T12:46:00;22.30;99.90
61386;DHT22;47256;18.904;-99.054;2023-09-07T12:48:27;22.30;99.90
61386;DHT22;47256;18.904;-99.054;2023-09-07T12:50:54;22.30;99.90
61386;DHT22;47256;18.904;-99.054;2023-09-07T12:53:22;22.30;99.90
61386;DHT22;47256;18.904;-99.054;2023-09-07T12:55:53;22.30;99.90
61386;DHT22;47256;18.904;-99.054;2023-09-07T12:58:21;22.30;99.90
61386;DHT22;47256;18.904;-99.054;2023-09-07T13:00:49;22.30;99.90
61386;DHT22;47256;18.904;-99.054;2023-09-07T13:03:18;22.30;99.90
61386;DHT22;47256;18.904;-99.054;2023-09-07T13:05:46;22.30;99.90
61386;DHT22;47256;18.904;-99.054;2023-09-07T13:08:13;22.20;99.90
61386;DHT22;47256;18.904;-99.054;2023-09-07T13:10:41;22.30;99.90
61386;DHT22;47256;18.904;-99.054;2023-09-07T13:13:09;22.30;99.90
61386;DHT22;47256;18.904;-99.054;2023-09-07T13:15:36;22.30;99.90
61386;DHT22;47256;18.904;-99.054;2023-09-07T13:18:03;22.40;99.90
61386;DHT22;47256;18.904;-99.054;2023-09-07T13:20:30;22.40;99.90
61386;DHT22;47256;18.904;-99.054;2023-09-07T13:22:57;22.40;99.90
61386;DHT22;47256;18.904;-99.054;2023-09-07T13:25:25;22.40;99.90
61386;DHT22;47256;18.904;-99.054;2023-09-07T13:27:52;22.50;99.90
61386;DHT22;47256;18.904;-99.054;2023-09-07T13:30:21;22.50;99.90
61386;DHT22;47256;18.904;-99.054;2023-09-07T13:32:48;22.60;99.90
61386;DHT22;47256;18.904;-99.054;2023-09-07T13:35:17;22.70;99.90
61386;DHT22;47256;18.904;-99.054;2023-09-07T13:37:44;22.70;99.90
61386;DHT22;47256;18.904;-99.054;2023-09-07T13:40:11;22.70;99.90
61386;DHT22;47256;18.904;-99.054;2023-09-07T13:42:39;22.70;99.90
61386;DHT22;47256;18.904;-99.054;2023-09-07T13:45:07;22.60;99.90
61386;DHT22;47256;18.904;-99.054;2023-09-07T13:47:40;22.70;99.90
61386;DHT22;47256;18.904;-99.054;2023-09-07T13:50:07;22.70;99.90
61386;DHT22;47256;18.904;-99.054;2023-09-07T13:52:35;22.60;99.90
61386;DHT22;47256;18.904;-99.054;2023-09-07T13:55:02;22.70;99.90
61386;DHT22;47256;18.904;-99.054;2023-09-07T13:57:32;22.70;99.90
61386;DHT22;47256;18.904;-99.054;2023-09-07T13:59:59;22.80;99.90
61386;DHT22;47256;18.904;-99.054;2023-09-07T14:02:27;22.80;99.90
61386;DHT22;47256;18.904;-99.054;2023-09-07T14:04:54;22.80;99.90
61386;DHT22;47256;18.904;-99.054;2023-09-07T14:07:22;22.80;99.90
61386;DHT22;47256;18.904;-99.054;2023-09-07T14:09:55;22.90;99.90
61386;DHT22;47256;18.904;-99.054;2023-09-07T14:12:22;22.90;99.90
61386;DHT22;47256;18.904;-99.054;2023-09-07T14:14:49;22.90;99.90
61386;DHT22;47256;18.904;-99.054;2023-09-07T14:17:18;23.00;99.90
61386;DHT22;47256;18.904;-99.054;2023-09-07T14:19:44;23.10;99.90
61386;DHT22;47256;18.904;-99.054;2023-09-07T14:22:13;23.10;99.90
61386;DHT22;47256;18.904;-99.054;2023-09-07T14:24:40;23.10;99.90
61386;DHT22;47256;18.904;-99.054;2023-09-07T14:27:07;23.20;99.90
61386;DHT22;47256;18.904;-99.054;2023-09-07T14:29:35;23.20;99.90
61386;DHT22;47256;18.904;-99.054;2023-09-07T14:32:03;23.10;99.90
61386;DHT22;47256;18.904;-99.054;2023-09-07T14:34:30;23.10;99.90
61386;DHT22;47256;18.904;-99.054;2023-09-07T14:36:58;23.10;99.90
61386;DHT22;47256;18.904;-99.054;2023-09-07T14:39:25;23.20;99.90
61386;DHT22;47256;18.904;-99.054;2023-09-07T14:41:52;23.20;99.90
61386;DHT22;47256;18.904;-99.054;2023-09-07T14:44:20;23.10;99.90
61386;DHT22;47256;18.904;-99.054;2023-09-07T14:46:47;23.10;99.90
61386;DHT22;47256;18.904;-99.054;2023-09-07T14:49:16;23.20;99.90
61386;DHT22;47256;18.904;-99.054;2023-09-07T14:51:47;23.40;99.90
61386;DHT22;47256;18.904;-99.054;2023-09-07T14:54:14;23.40;99.90
61386;DHT22;47256;18.904;-99.054;2023-09-07T14:56:43;23.50;99.90
61386;DHT22;47256;18.904;-99.054;2023-09-07T14:59:10;23.70;99.90
61386;DHT22;47256;18.904;-99.054;2023-09-07T15:01:39;23.90;99.90
61386;DHT22;47256;18.904;-99.054;2023-09-07T15:04:06;24.00;99.90
61386;DHT22;47256;18.904;-99.054;2023-09-07T15:06:33;24.00;99.90
61386;DHT22;47256;18.904;-99.054;2023-09-07T15:09:01;23.90;99.90
61386;DHT22;47256;18.904;-99.054;2023-09-07T15:11:28;23.90;99.90
61386;DHT22;47256;18.904;-99.054;2023-09-07T15:13:55;24.10;99.90